sensor_id;sensor_type;location;lat;lon;timestamp;temperature;humidity
1359;DHT22;673;48.098;14.422;2024-03-23T00:53:55;9.30;99.90
1359;DHT22;673;48.098;14.422;2024-03-23T00:56:22;9.20;99.90
1359;DHT22;673;48.098;14.422;2024-03-23T00:58:48;9.30;99.90
1359;DHT22;673;48.098;14.422;2024-03-23T01:01:15;9.20;99.90
1359;DHT22;673;48.098;14.422;2024-03-23T01:03:41;9.30;99.90
1359;DHT22;673;48.098;14.422;2024-03-23T01:06:08;9.30;99.90
1359;DHT22;673;48.098;14.422;2024-03-23T01:08:34;9.20;99.90
1359;DHT22;673;48.098;14.422;2024-03-23T01:11:03;9.20;99.90
1359;DHT22;673;48.098;14.422;2024-03-23T01:13:30;9.20;99.90
1359;DHT22;673;48.098;14.422;2024-03-23T01:15:57;9.10;99.90
1359;DHT22;673;48.098;14.422;2024-03-23T01:18:23;9.00;99.90
1359;DHT22;673;48.098;14.422;2024-03-23T01:20:51;9.00;99.90
1359;DHT22;673;48.098;14.422;2024-03-23T01:23:17;9.00;99.90
1359;DHT22;673;48.098;14.422;2024-03-23T01:25:51;9.00;99.90
1359;DHT22;673;48.098;14.422;2024-03-23T01:28:19;9.00;99.90
1359;DHT22;673;48.098;14.422;2024-03-23T01:30:46;9.10;99.90
1359;DHT22;673;48.098;14.422;2024-03-23T01:33:12;9.10;99.90
1359;DHT22;673;48.098;14.422;2024-03-23T01:35:38;9.20;99.90
1359;DHT22;673;48.098;14.422;2024-03-23T01:38:04;9.20;99.90
1359;DHT22;673;48.098;14.422;2024-03-23T01:40:31;9.20;99.90
1359;DHT22;673;48.098;14.422;2024-03-23T01:42:58;9.20;99.90
1359;DHT22;673;48.098;14.422;2024-03-23T01:45:31;9.20;99.90
1359;DHT22;673;48.098;14.422;2024-03-23T01:47:57;9.10;99.90
1359;DHT22;673;48.098;14.422;2024-03-23T01:50:24;9.10;99.90
1359;DHT22;673;48.098;14.422;2024-03-23T01:52:50;9.10;99.90
1359;DHT22;673;48.098;14.422;2024-03-23T01:55:17;9.10;99.90
1359;DHT22;673;48.098;14.422;2024-03-23T01:57:43;9.20;99.90
1359;DHT22;673;48.098;14.422;2024-03-23T02:00:11;9.20;99.90
1359;DHT22;673;48.098;14.422;2024-03-23T02:02:42;9.30;99.90
1359;DHT22;673;48.098;14.422;2024-03-23T02:05:10;9.30;99.90
1359;DHT22;673;48.098;14.422;2024-03-23T02:07:37;9.40;99.90
1359;DHT22;673;48.098;14.422;2024-03-23T02:10:06;9.40;99.90
1359;DHT22;673;48.098;14.422;2024-03-23T02:12:32;9.50;99.90
1359;DHT22;673;48.098;14.422;2024-03-23T02:14:59;9.40;99.90
1359;DHT22;673;48.098;14.422;2024-03-23T02:17:25;9.40;99.90
1359;DHT22;673;48.098;14.422;2024-03-23T02:19:53;9.40;99.90
1359;DHT22;673;48.098;14.422;2024-03-23T02:22:19;9.30;99.90
1359;DHT22;673;48.098;14.422;2024-03-23T02:24:47;9.20;99.90
1359;DHT22;673;48.098;14.422;2024-03-23T02:27:13;9.20;99.90
1359;DHT22;673;48.098;14.422;2024-03-23T02:29:40;9.20;99.90
1359;DHT22;673;48.098;14.422;2024-03-23T02:32:06;9.20;99.90
1359;DHT22;673;48.098;14.422;2024-03-23T02:34:34;9.20;99.90
1359;DHT22;673;48.098;14.422;2024-03-23T02:37:00;9.20;99.90
1359;DHT22;673;48.098;14.422;2024-03-23T02:39:27;9.20;99.90
1359;DHT22;673;48.098;14.422;2024-03-23T02:41:54;9.10;99.90
1359;DHT22;673;48.098;14.422;2024-03-23T02:44:21;9.10;99.90
1359;DHT22;673;48.098;14.422;2024-03-23T02:46:47;9.00;99.90
1359;DHT22;673;48.098;14.422;2024-03-23T02:49:14;8.90;99.90
1359;DHT22;673;48.098;14.422;2024-03-23T02:51:40;8.80;99.90
1359;DHT22;673;48.098;14.422;2024-03-23T02:54:07;8.80;99.90
1359;DHT22;673;48.098;14.422;2024-03-23T02:56:33;8.80;99.90
1359;DHT22;673;48.098;14.422;2024-03-23T02:59:02;8.70;99.90
1359;DHT22;673;48.098;14.422;2024-03-23T03:01:28;8.80;99.90
1359;DHT22;673;48.098;14.422;2024-03-23T03:03:55;8.70;99.90
1359;DHT22;673;48.098;14.422;2024-03-23T03:06:24;8.60;99.90
1359;DHT22;673;48.098;14.422;2024-03-23T03:08:51;8.60;99.90
1359;DHT22;673;48.098;14.422;2024-03-23T03:11:17;8.50;99.90
1359;DHT22;673;48.098;14.422;2024-03-23T03:13:44;8.50;99.90
1359;DHT22;673;48.098;14.422;2024-03-23T03:16:11;8.40;99.90
1359;DHT22;673;48.098;14.422;2024-03-23T03:18:38;8.40;99.90
1359;DHT22;673;48.098;14.422;2024-03-23T03:21:05;8.30;99.90
1359;DHT22;673;48.098;14.422;2024-03-23T03:23:36;8.30;99.90
1359;DHT22;673;48.098;14.422;2024-03-23T03:26:02;8.30;99.90
1359;DHT22;673;48.098;14.422;2024-03-23T03:28:29;8.30;99.90
1359;DHT22;673;48.098;14.422;2024-03-23T03:30:56;8.30;99.90
1359;DHT22;673;48.098;14.422;2024-03-23T03:33:25;8.20;99.90
1359;DHT22;673;48.098;14.422;2024-03-23T03:35:51;8.20;99.90
1359;DHT22;673;48.098;14.422;2024-03-23T03:38:18;8.10;99.90
1359;DHT22;673;48.098;14.422;2024-03-23T03:40:45;8.10;99.90
1359;DHT22;673;48.098;14.422;2024-03-23T03:43:12;8.00;99.90
1359;DHT22;673;48.098;14.422;2024-03-23T03:45:38;8.10;99.90
1359;DHT22;673;48.098;14.422;2024-03-23T03:48:05;8.00;99.90
1359;DHT22;673;48.098;14.422;2024-03-23T03:50:33;8.00;99.90
1359;DHT22;673;48.098;14.422;2024-03-23T03:52:59;8.00;99.90
1359;DHT22;673;48.098;14.422;2024-03-23T03:55:25;7.90;99.90
1359;DHT22;673;48.098;14.422;2024-03-23T03:57:53;7.90;99.90
1359;DHT22;673;48.098;14.422;2024-03-23T04:00:19;7.90;99.90
1359;DHT22;673;48.098;14.422;2024-03-23T04:02:46;7.80;99.90
1359;DHT22;673;48.098;14.422;2024-03-23T04:05:12;7.70;99.90
1359;DHT22;673;48.098;14.422;2024-03-23T04:07:41;7.60;99.90
1359;DHT22;673;48.098;14.422;2024-03-23T04:10:07;7.60;99.90
1359;DHT22;673;48.098;14.422;2024-03-23T04:12:35;7.60;99.90
1359;DHT22;673;48.098;14.422;2024-03-23T04:15:01;7.60;99.90
1359;DHT22;673;48.098;14.422;2024-03-23T04:17:29;7.60;99.90
1359;DHT22;673;48.098;14.422;2024-03-23T04:19:57;7.50;99.90
1359;DHT22;673;48.098;14.422;2024-03-23T04:22:24;7.50;99.90
1359;DHT22;673;48.098;14.422;2024-03-23T04:24:53;7.50;99.90
1359;DHT22;673;48.098;14.422;2024-03-23T04:27:20;7.40;99.90
1359;DHT22;673;48.098;14.422;2024-03-23T04:29:48;7.30;99.90
1359;DHT22;673;48.098;14.422;2024-03-23T04:32:15;7.30;99.90
1359;DHT22;673;48.098;14.422;2024-03-23T04:34:42;7.20;99.90
1359;DHT22;673;48.098;14.422;2024-03-23T04:37:10;7.20;99.90
1359;DHT22;673;48.098;14.422;2024-03-23T04:39:37;7.40;99.90
1359;DHT22;673;48.098;14.422;2024-03-23T04:42:06;7.40;99.90
1359;DHT22;673;48.098;14.422;2024-03-23T04:44:33;7.50;99.90
1359;DHT22;673;48.098;14.422;2024-03-23T04:47:00;7.50;99.90
1359;DHT22;673;48.098;14.422;2024-03-23T04:49:27;7.40;99.90
1359;DHT22;673;48.098;14.422;2024-03-23T04:51:54;7.50;99.90
1359;DHT22;673;48.098;14.422;2024-03-23T04:54:21;7.50;99.90
1359;DHT22;673;48.098;14.422;2024-03-23T04:56:48;7.40;99.90
1359;DHT22;673;48.098;14.422;2024-03-23T04:59:16;7.40;99.90
1359;DHT22;673;48.098;14.422;2024-03-23T05:01:42;7.50;99.90
1359;DHT22;673;48.098;14.422;2024-03-23T05:04:09;7.40;99.90
1359;DHT22;673;48.098;14.422;2024-03-23T05:06:35;7.60;99.90
1359;DHT22;673;48.098;14.422;2024-03-23T05:09:02;7.60;99.90
1359;DHT22;673;48.098;14.422;2024-03-23T05:11:31;7.50;99.90
1359;DHT22;673;48.098;14.422;2024-03-23T05:13:58;7.40;99.90
1359;DHT22;673;48.098;14.422;2024-03-23T05:16:26;7.30;99.90
1359;DHT22;673;48.098;14.422;2024-03-23T05:18:53;7.20;99.90
1359;DHT22;673;48.098;14.422;2024-03-23T05:21:19;7.30;99.90
1359;DHT22;673;48.098;14.422;2024-03-23T05:23:46;7.20;99.90
1359;DHT22;673;48.098;14.422;2024-03-23T05:26:13;7.20;99.90
1359;DHT22;673;48.098;14.422;2024-03-23T05:28:40;7.30;99.90
1359;DHT22;673;48.098;14.422;2024-03-23T05:31:06;7.20;99.90
1359;DHT22;673;48.098;14.422;2024-03-23T05:33:35;7.20;99.90
1359;DHT22;673;48.098;14.422;2024-03-23T05:36:04;7.10;99.90
1359;DHT22;673;48.098;14.422;2024-03-23T05:38:34;7.20;99.90
1359;DHT22;673;48.098;14.422;2024-03-23T05:41:00;7.20;99.90
1359;DHT22;673;48.098;14.422;2024-03-23T05:43:27;7.20;99.90
1359;DHT22;673;48.098;14.422;2024-03-23T05:45:54;7.20;99.90
1359;DHT22;673;48.098;14.422;2024-03-23T05:48:21;7.30;99.90
1359;DHT22;673;48.098;14.422;2024-03-23T05:50:49;7.40;99.90
1359;DHT22;673;48.098;14.422;2024-03-23T05:53:17;7.40;99.90
1359;DHT22;673;48.098;14.422;2024-03-23T05:55:43;7.50;99.90
1359;DHT22;673;48.098;14.422;2024-03-23T05:58:10;7.50;99.90
1359;DHT22;673;48.098;14.422;2024-03-23T06:00:36;7.60;99.90
1359;DHT22;673;48.098;14.422;2024-03-23T06:03:03;7.60;99.90
1359;DHT22;673;48.098;14.422;2024-03-23T06:05:29;7.70;99.90
1359;DHT22;673;48.098;14.422;2024-03-23T06:07:59;7.70;99.90
1359;DHT22;673;48.098;14.422;2024-03-23T06:10:25;7.90;99.90
1359;DHT22;673;48.098;14.422;2024-03-23T06:12:52;8.10;99.90
1359;DHT22;673;48.098;14.422;2024-03-23T06:15:18;8.30;99.90
1359;DHT22;673;48.098;14.422;2024-03-23T06:17:45;8.40;99.90
1359;DHT22;673;48.098;14.422;2024-03-23T06:20:12;8.60;99.90
1359;DHT22;673;48.098;14.422;2024-03-23T06:22:39;8.80;99.90
1359;DHT22;673;48.098;14.422;2024-03-23T06:25:07;8.90;99.90
1359;DHT22;673;48.098;14.422;2024-03-23T06:27:34;9.00;99.90
1359;DHT22;673;48.098;14.422;2024-03-23T06:30:00;9.00;99.90
1359;DHT22;673;48.098;14.422;2024-03-23T06:32:28;9.20;99.90
1359;DHT22;673;48.098;14.422;2024-03-23T06:34:54;9.20;99.90
1359;DHT22;673;48.098;14.422;2024-03-23T06:37:21;9.30;99.90
1359;DHT22;673;48.098;14.422;2024-03-23T06:39:47;9.10;99.90
1359;DHT22;673;48.098;14.422;2024-03-23T06:42:16;9.20;99.90
1359;DHT22;673;48.098;14.422;2024-03-23T06:44:43;9.30;99.90
1359;DHT22;673;48.098;14.422;2024-03-23T06:47:10;9.50;99.90
1359;DHT22;673;48.098;14.422;2024-03-23T06:49:36;9.70;99.90
1359;DHT22;673;48.098;14.422;2024-03-23T06:52:03;9.80;99.90
1359;DHT22;673;48.098;14.422;2024-03-23T06:54:29;10.00;99.90
1359;DHT22;673;48.098;14.422;2024-03-23T06:56:56;10.10;99.90
1359;DHT22;673;48.098;14.422;2024-03-23T06:59:23;10.10;99.90
1359;DHT22;673;48.098;14.422;2024-03-23T07:01:50;10.10;99.90
1359;DHT22;673;48.098;14.422;2024-03-23T07:04:16;10.30;99.90
1359;DHT22;673;48.098;14.422;2024-03-23T07:06:44;10.30;99.90
1359;DHT22;673;48.098;14.422;2024-03-23T07:09:10;10.50;99.90
1359;DHT22;673;48.098;14.422;2024-03-23T07:11:38;10.70;99.90
1359;DHT22;673;48.098;14.422;2024-03-23T07:14:04;10.80;99.90
1359;DHT22;673;48.098;14.422;2024-03-23T07:16:32;10.90;99.90
1359;DHT22;673;48.098;14.422;2024-03-23T07:18:58;11.10;99.90
1359;DHT22;673;48.098;14.422;2024-03-23T07:21:25;11.40;99.90
1359;DHT22;673;48.098;14.422;2024-03-23T07:23:51;11.60;99.90
1359;DHT22;673;48.098;14.422;2024-03-23T07:26:18;11.70;99.90
1359;DHT22;673;48.098;14.422;2024-03-23T07:28:44;11.60;99.90
1359;DHT22;673;48.098;14.422;2024-03-23T07:31:13;11.70;99.90
1359;DHT22;673;48.098;14.422;2024-03-23T07:33:45;11.80;99.90
1359;DHT22;673;48.098;14.422;2024-03-23T07:36:12;11.90;99.90
1359;DHT22;673;48.098;14.422;2024-03-23T07:38:40;12.00;99.90
1359;DHT22;673;48.098;14.422;2024-03-23T07:41:08;12.20;99.90
1359;DHT22;673;48.098;14.422;2024-03-23T07:43:35;12.40;99.90
1359;DHT22;673;48.098;14.422;2024-03-23T07:46:02;12.60;99.90
1359;DHT22;673;48.098;14.422;2024-03-23T07:48:29;12.80;99.90
1359;DHT22;673;48.098;14.422;2024-03-23T07:51:02;12.90;99.90
1359;DHT22;673;48.098;14.422;2024-03-23T07:53:28;12.90;99.90
1359;DHT22;673;48.098;14.422;2024-03-23T07:55:56;13.00;99.90
1359;DHT22;673;48.098;14.422;2024-03-23T07:58:22;13.20;99.90
1359;DHT22;673;48.098;14.422;2024-03-23T08:00:49;13.40;99.90
1359;DHT22;673;48.098;14.422;2024-03-23T08:03:15;13.70;99.90
1359;DHT22;673;48.098;14.422;2024-03-23T08:05:42;13.90;99.90
1359;DHT22;673;48.098;14.422;2024-03-23T08:08:10;14.00;99.90
1359;DHT22;673;48.098;14.422;2024-03-23T08:10:37;13.80;99.90
1359;DHT22;673;48.098;14.422;2024-03-23T08:13:04;13.90;99.90
1359;DHT22;673;48.098;14.422;2024-03-23T08:15:32;14.20;99.90
1359;DHT22;673;48.098;14.422;2024-03-23T08:17:59;14.40;99.90
1359;DHT22;673;48.098;14.422;2024-03-23T08:20:26;14.80;99.90
1359;DHT22;673;48.098;14.422;2024-03-23T08:22:52;15.10;99.90
1359;DHT22;673;48.098;14.422;2024-03-23T08:25:21;15.40;99.90
1359;DHT22;673;48.098;14.422;2024-03-23T08:27:47;15.30;99.90
1359;DHT22;673;48.098;14.422;2024-03-23T08:30:14;15.20;99.90
1359;DHT22;673;48.098;14.422;2024-03-23T08:32:40;14.90;99.90
1359;DHT22;673;48.098;14.422;2024-03-23T08:35:08;14.80;99.90
1359;DHT22;673;48.098;14.422;2024-03-23T08:37:34;14.80;99.90
1359;DHT22;673;48.098;14.422;2024-03-23T08:40:01;15.00;99.90
1359;DHT22;673;48.098;14.422;2024-03-23T08:42:29;15.20;99.90
1359;DHT22;673;48.098;14.422;2024-03-23T08:44:56;15.40;99.90
1359;DHT22;673;48.098;14.422;2024-03-23T08:47:22;15.60;99.90
1359;DHT22;673;48.098;14.422;2024-03-23T08:49:49;15.80;99.90
1359;DHT22;673;48.098;14.422;2024-03-23T08:52:15;16.10;99.90
1359;DHT22;673;48.098;14.422;2024-03-23T08:54:42;16.60;99.50
1359;DHT22;673;48.098;14.422;2024-03-23T08:57:08;16.80;99.80
1359;DHT22;673;48.098;14.422;2024-03-23T08:59:37;17.00;98.30
1359;DHT22;673;48.098;14.422;2024-03-23T09:02:03;17.20;97.40
1359;DHT22;673;48.098;14.422;2024-03-23T09:04:31;17.40;98.80
1359;DHT22;673;48.098;14.422;2024-03-23T09:06:57;17.50;96.20
1359;DHT22;673;48.098;14.422;2024-03-23T09:09:24;17.80;94.70
1359;DHT22;673;48.098;14.422;2024-03-23T09:11:50;18.10;96.80
1359;DHT22;673;48.098;14.422;2024-03-23T09:14:17;18.10;92.40
1359;DHT22;673;48.098;14.422;2024-03-23T09:16:44;18.10;91.60
1359;DHT22;673;48.098;14.422;2024-03-23T09:19:11;18.30;93.80
1359;DHT22;673;48.098;14.422;2024-03-23T09:21:37;18.40;91.00
1359;DHT22;673;48.098;14.422;2024-03-23T09:24:05;18.50;89.70
1359;DHT22;673;48.098;14.422;2024-03-23T09:26:31;18.60;90.10
1359;DHT22;673;48.098;14.422;2024-03-23T09:28:58;18.70;86.60
1359;DHT22;673;48.098;14.422;2024-03-23T09:31:24;18.70;90.20
1359;DHT22;673;48.098;14.422;2024-03-23T09:33:52;18.80;85.20
1359;DHT22;673;48.098;14.422;2024-03-23T09:36:19;18.70;84.40
1359;DHT22;673;48.098;14.422;2024-03-23T09:38:46;18.70;79.30
1359;DHT22;673;48.098;14.422;2024-03-23T09:41:14;18.70;82.60
1359;DHT22;673;48.098;14.422;2024-03-23T09:43:41;18.90;86.70
1359;DHT22;673;48.098;14.422;2024-03-23T09:46:07;18.90;84.70
1359;DHT22;673;48.098;14.422;2024-03-23T09:48:35;18.90;84.90
1359;DHT22;673;48.098;14.422;2024-03-23T09:51:03;18.80;81.60
1359;DHT22;673;48.098;14.422;2024-03-23T09:53:30;18.80;77.70
1359;DHT22;673;48.098;14.422;2024-03-23T09:55:58;18.90;79.40
1359;DHT22;673;48.098;14.422;2024-03-23T09:58:24;18.70;68.90
1359;DHT22;673;48.098;14.422;2024-03-23T10:00:51;18.90;78.70
1359;DHT22;673;48.098;14.422;2024-03-23T10:03:17;19.20;79.60
1359;DHT22;673;48.098;14.422;2024-03-23T10:05:44;19.40;69.30
1359;DHT22;673;48.098;14.422;2024-03-23T10:08:19;19.50;66.90
1359;DHT22;673;48.098;14.422;2024-03-23T10:10:46;19.40;68.40
1359;DHT22;673;48.098;14.422;2024-03-23T10:13:24;19.50;69.10
1359;DHT22;673;48.098;14.422;2024-03-23T10:15:57;19.60;69.40
1359;DHT22;673;48.098;14.422;2024-03-23T10:18:24;19.50;73.30
1359;DHT22;673;48.098;14.422;2024-03-23T10:21:06;19.50;66.50
1359;DHT22;673;48.098;14.422;2024-03-23T10:23:36;19.30;64.50
1359;DHT22;673;48.098;14.422;2024-03-23T10:26:13;18.90;66.30
1359;DHT22;673;48.098;14.422;2024-03-23T10:28:51;18.30;78.10
1359;DHT22;673;48.098;14.422;2024-03-23T10:31:17;17.80;88.10
1359;DHT22;673;48.098;14.422;2024-03-23T10:33:45;17.20;88.40
1359;DHT22;673;48.098;14.422;2024-03-23T10:36:12;16.90;90.70
1359;DHT22;673;48.098;14.422;2024-03-23T10:38:41;16.00;90.00
1359;DHT22;673;48.098;14.422;2024-03-23T10:41:08;15.50;90.80
1359;DHT22;673;48.098;14.422;2024-03-23T10:43:36;15.30;93.20
1359;DHT22;673;48.098;14.422;2024-03-23T10:46:03;14.90;95.60
1359;DHT22;673;48.098;14.422;2024-03-23T10:48:30;13.70;96.00
1359;DHT22;673;48.098;14.422;2024-03-23T10:50:56;13.40;96.60
1359;DHT22;673;48.098;14.422;2024-03-23T10:53:25;13.10;97.50
1359;DHT22;673;48.098;14.422;2024-03-23T10:55:54;13.00;97.60
1359;DHT22;673;48.098;14.422;2024-03-23T10:58:24;12.60;98.20
1359;DHT22;673;48.098;14.422;2024-03-23T11:00:52;12.50;96.90
1359;DHT22;673;48.098;14.422;2024-03-23T11:03:33;12.80;98.00
1359;DHT22;673;48.098;14.422;2024-03-23T11:06:00;12.50;97.80
1359;DHT22;673;48.098;14.422;2024-03-23T11:08:32;12.30;97.20
1359;DHT22;673;48.098;14.422;2024-03-23T11:11:22;12.20;97.20
1359;DHT22;673;48.098;14.422;2024-03-23T11:13:50;12.20;97.90
1359;DHT22;673;48.098;14.422;2024-03-23T11:16:17;12.50;96.90
1359;DHT22;673;48.098;14.422;2024-03-23T11:18:48;12.50;96.90
1359;DHT22;673;48.098;14.422;2024-03-23T11:21:52;12.40;98.10
1359;DHT22;673;48.098;14.422;2024-03-23T11:24:20;12.00;97.40
1359;DHT22;673;48.098;14.422;2024-03-23T11:26:48;11.90;98.50
1359;DHT22;673;48.098;14.422;2024-03-23T11:29:16;11.80;99.10
1359;DHT22;673;48.098;14.422;2024-03-23T11:31:46;11.70;98.70
1359;DHT22;673;48.098;14.422;2024-03-23T11:34:15;11.70;99.20
1359;DHT22;673;48.098;14.422;2024-03-23T11:36:41;11.50;98.00
1359;DHT22;673;48.098;14.422;2024-03-23T11:39:14;11.30;97.50
1359;DHT22;673;48.098;14.422;2024-03-23T11:41:50;11.20;99.40
1359;DHT22;673;48.098;14.422;2024-03-23T11:44:18;10.90;99.90
1359;DHT22;673;48.098;14.422;2024-03-23T11:46:44;10.60;99.90
1359;DHT22;673;48.098;14.422;2024-03-23T11:49:22;10.40;99.90
1359;DHT22;673;48.098;14.422;2024-03-23T11:51:48;10.20;99.90
1359;DHT22;673;48.098;14.422;2024-03-23T11:54:15;10.00;99.90
1359;DHT22;673;48.098;14.422;2024-03-23T11:56:56;10.10;99.90
1359;DHT22;673;48.098;14.422;2024-03-23T11:59:33;10.00;99.90
1359;DHT22;673;48.098;14.422;2024-03-23T12:01:59;9.90;99.90
1359;DHT22;673;48.098;14.422;2024-03-23T12:04:27;9.80;99.90
1359;DHT22;673;48.098;14.422;2024-03-23T12:07:11;9.80;99.90
1359;DHT22;673;48.098;14.422;2024-03-23T12:09:38;9.80;99.90
1359;DHT22;673;48.098;14.422;2024-03-23T12:12:11;9.80;99.90
1359;DHT22;673;48.098;14.422;2024-03-23T12:14:40;9.70;99.90
1359;DHT22;673;48.098;14.422;2024-03-23T12:17:11;9.70;99.90
1359;DHT22;673;48.098;14.422;2024-03-23T12:19:38;9.70;99.90
1359;DHT22;673;48.098;14.422;2024-03-23T12:22:05;9.70;99.90
1359;DHT22;673;48.098;14.422;2024-03-23T12:24:32;9.70;99.90
1359;DHT22;673;48.098;14.422;2024-03-23T12:27:00;9.70;99.90
1359;DHT22;673;48.098;14.422;2024-03-23T12:29:30;9.70;99.90
1359;DHT22;673;48.098;14.422;2024-03-23T12:31:59;9.60;99.90
1359;DHT22;673;48.098;14.422;2024-03-23T12:34:26;9.50;99.90
1359;DHT22;673;48.098;14.422;2024-03-23T12:36:52;9.50;99.90
1359;DHT22;673;48.098;14.422;2024-03-23T12:39:19;9.40;99.90
1359;DHT22;673;48.098;14.422;2024-03-23T12:41:46;9.30;99.90
1359;DHT22;673;48.098;14.422;2024-03-23T12:44:13;9.30;99.90
1359;DHT22;673;48.098;14.422;2024-03-23T12:46:41;9.30;99.90
1359;DHT22;673;48.098;14.422;2024-03-23T12:49:09;9.30;99.90
1359;DHT22;673;48.098;14.422;2024-03-23T12:51:35;9.40;99.90
1359;DHT22;673;48.098;14.422;2024-03-23T12:54:02;9.40;99.90
1359;DHT22;673;48.098;14.422;2024-03-23T12:56:28;9.40;99.90
1359;DHT22;673;48.098;14.422;2024-03-23T12:58:56;9.40;99.90
1359;DHT22;673;48.098;14.422;2024-03-23T13:01:22;9.30;99.90
1359;DHT22;673;48.098;14.422;2024-03-23T13:03:51;9.20;99.90
1359;DHT22;673;48.098;14.422;2024-03-23T13:06:17;9.10;99.90
1359;DHT22;673;48.098;14.422;2024-03-23T13:08:45;9.00;99.90
1359;DHT22;673;48.098;14.422;2024-03-23T13:11:11;8.90;99.90
1359;DHT22;673;48.098;14.422;2024-03-23T13:13:38;8.70;99.90
1359;DHT22;673;48.098;14.422;2024-03-23T13:16:05;8.60;99.90
1359;DHT22;673;48.098;14.422;2024-03-23T13:18:32;8.50;99.90
1359;DHT22;673;48.098;14.422;2024-03-23T13:21:00;8.40;99.90
1359;DHT22;673;48.098;14.422;2024-03-23T13:23:28;8.30;99.90
1359;DHT22;673;48.098;14.422;2024-03-23T13:25:55;8.30;99.90
1359;DHT22;673;48.098;14.422;2024-03-23T13:28:22;8.20;99.90
1359;DHT22;673;48.098;14.422;2024-03-23T13:30:50;8.10;99.90
1359;DHT22;673;48.098;14.422;2024-03-23T13:33:16;8.20;99.90
1359;DHT22;673;48.098;14.422;2024-03-23T13:35:49;8.20;99.90
1359;DHT22;673;48.098;14.422;2024-03-23T13:38:17;8.20;99.90
1359;DHT22;673;48.098;14.422;2024-03-23T13:40:53;8.20;99.90
1359;DHT22;673;48.098;14.422;2024-03-23T13:43:20;8.20;99.90
1359;DHT22;673;48.098;14.422;2024-03-23T13:45:47;7.90;99.90
1359;DHT22;673;48.098;14.422;2024-03-23T13:48:14;7.30;99.90
1359;DHT22;673;48.098;14.422;2024-03-23T13:50:41;7.10;99.90
1359;DHT22;673;48.098;14.422;2024-03-23T13:53:07;7.10;99.90
1359;DHT22;673;48.098;14.422;2024-03-23T13:55:36;7.20;99.90
1359;DHT22;673;48.098;14.422;2024-03-23T13:58:02;7.30;99.90
1359;DHT22;673;48.098;14.422;2024-03-23T14:00:29;7.40;99.90
1359;DHT22;673;48.098;14.422;2024-03-23T14:02:57;7.40;99.90
1359;DHT22;673;48.098;14.422;2024-03-23T14:05:24;7.50;99.90
1359;DHT22;673;48.098;14.422;2024-03-23T14:07:50;7.60;99.90
1359;DHT22;673;48.098;14.422;2024-03-23T14:10:17;7.70;99.90
1359;DHT22;673;48.098;14.422;2024-03-23T14:12:45;7.70;99.90
1359;DHT22;673;48.098;14.422;2024-03-23T14:15:12;7.70;99.90
1359;DHT22;673;48.098;14.422;2024-03-23T14:17:38;7.70;99.90
1359;DHT22;673;48.098;14.422;2024-03-23T14:20:06;7.80;99.90
1359;DHT22;673;48.098;14.422;2024-03-23T14:22:35;7.80;99.90
1359;DHT22;673;48.098;14.422;2024-03-23T14:25:01;7.80;99.90
1359;DHT22;673;48.098;14.422;2024-03-23T14:27:27;7.80;99.90
1359;DHT22;673;48.098;14.422;2024-03-23T14:29:56;7.80;99.90
1359;DHT22;673;48.098;14.422;2024-03-23T14:32:22;7.70;99.90
1359;DHT22;673;48.098;14.422;2024-03-23T14:34:49;7.70;99.90
1359;DHT22;673;48.098;14.422;2024-03-23T14:37:15;7.70;99.90
1359;DHT22;673;48.098;14.422;2024-03-23T14:39:42;7.60;99.90
1359;DHT22;673;48.098;14.422;2024-03-23T14:42:10;7.70;99.90
1359;DHT22;673;48.098;14.422;2024-03-23T14:44:36;7.60;99.90
1359;DHT22;673;48.098;14.422;2024-03-23T14:47:04;7.60;99.90
1359;DHT22;673;48.098;14.422;2024-03-23T14:49:31;7.60;99.90
1359;DHT22;673;48.098;14.422;2024-03-23T14:51:57;7.60;99.90
1359;DHT22;673;48.098;14.422;2024-03-23T14:54:24;7.50;99.90
1359;DHT22;673;48.098;14.422;2024-03-23T14:56:50;7.50;99.90
1359;DHT22;673;48.098;14.422;2024-03-23T14:59:17;7.50;99.90
1359;DHT22;673;48.098;14.422;2024-03-23T15:01:43;7.50;99.90
1359;DHT22;673;48.098;14.422;2024-03-23T15:04:11;7.50;99.90
1359;DHT22;673;48.098;14.422;2024-03-23T15:06:37;7.50;99.90
1359;DHT22;673;48.098;14.422;2024-03-23T15:09:04;7.40;99.90
1359;DHT22;673;48.098;14.422;2024-03-23T15:11:33;7.40;99.90
1359;DHT22;673;48.098;14.422;2024-03-23T15:14:00;7.50;99.90
1359;DHT22;673;48.098;14.422;2024-03-23T15:16:25;7.50;99.90
1359;DHT22;673;48.098;14.422;2024-03-23T15:18:52;7.40;99.90
1359;DHT22;673;48.098;14.422;2024-03-23T15:21:20;7.40;99.90
1359;DHT22;673;48.098;14.422;2024-03-23T15:23:47;7.40;99.90
1359;DHT22;673;48.098;14.422;2024-03-23T15:26:13;7.40;99.90
1359;DHT22;673;48.098;14.422;2024-03-23T15:28:41;7.40;99.90
1359;DHT22;673;48.098;14.422;2024-03-23T15:31:18;7.40;99.90
1359;DHT22;673;48.098;14.422;2024-03-23T15:33:45;7.30;99.90
1359;DHT22;673;48.098;14.422;2024-03-23T15:36:11;7.20;99.90
1359;DHT22;673;48.098;14.422;2024-03-23T15:38:40;7.20;99.90
1359;DHT22;673;48.098;14.422;2024-03-23T15:41:06;7.20;99.90
1359;DHT22;673;48.098;14.422;2024-03-23T15:43:33;7.20;99.90
1359;DHT22;673;48.098;14.422;2024-03-23T15:46:00;7.20;99.90
1359;DHT22;673;48.098;14.422;2024-03-23T15:48:27;7.20;99.90
1359;DHT22;673;48.098;14.422;2024-03-23T15:50:54;7.20;99.90
1359;DHT22;673;48.098;14.422;2024-03-23T15:53:22;7.20;99.90
1359;DHT22;673;48.098;14.422;2024-03-23T15:55:55;7.20;99.90
1359;DHT22;673;48.098;14.422;2024-03-23T15:58:22;7.10;99.90
1359;DHT22;673;48.098;14.422;2024-03-23T16:00:54;7.20;99.90
1359;DHT22;673;48.098;14.422;2024-03-23T16:03:21;7.10;99.90
1359;DHT22;673;48.098;14.422;2024-03-23T16:05:51;7.10;99.90
1359;DHT22;673;48.098;14.422;2024-03-23T16:08:18;7.10;99.90
1359;DHT22;673;48.098;14.422;2024-03-23T16:10:44;7.10;99.90
1359;DHT22;673;48.098;14.422;2024-03-23T16:13:12;7.10;99.90
1359;DHT22;673;48.098;14.422;2024-03-23T16:15:38;7.10;99.90
1359;DHT22;673;48.098;14.422;2024-03-23T16:18:05;7.10;99.90
1359;DHT22;673;48.098;14.422;2024-03-23T16:20:32;7.10;99.90
1359;DHT22;673;48.098;14.422;2024-03-23T16:22:59;7.10;99.90
1359;DHT22;673;48.098;14.422;2024-03-23T16:25:26;7.00;99.90
1359;DHT22;673;48.098;14.422;2024-03-23T16:27:52;7.00;99.90
1359;DHT22;673;48.098;14.422;2024-03-23T16:30:21;6.90;99.90
1359;DHT22;673;48.098;14.422;2024-03-23T16:32:47;6.90;99.90
1359;DHT22;673;48.098;14.422;2024-03-23T16:35:14;6.90;99.90
1359;DHT22;673;48.098;14.422;2024-03-23T16:37:40;6.80;99.90
1359;DHT22;673;48.098;14.422;2024-03-23T16:40:08;6.80;99.90
1359;DHT22;673;48.098;14.422;2024-03-23T16:42:35;6.80;99.90
1359;DHT22;673;48.098;14.422;2024-03-23T16:45:02;6.80;99.90
1359;DHT22;673;48.098;14.422;2024-03-23T16:47:30;6.80;99.90
1359;DHT22;673;48.098;14.422;2024-03-23T16:49:59;6.80;99.90
1359;DHT22;673;48.098;14.422;2024-03-23T16:52:25;6.80;99.90
1359;DHT22;673;48.098;14.422;2024-03-23T16:54:52;6.70;99.90
1359;DHT22;673;48.098;14.422;2024-03-23T16:57:18;6.70;99.90
1359;DHT22;673;48.098;14.422;2024-03-23T16:59:45;6.60;99.90
1359;DHT22;673;48.098;14.422;2024-03-23T17:02:11;6.50;99.90
1359;DHT22;673;48.098;14.422;2024-03-23T17:04:39;6.40;99.90
1359;DHT22;673;48.098;14.422;2024-03-23T17:07:05;6.30;99.90